Time;durP1;ratioP1;P1;durP2;ratioP2;P2;SDS_P1;SDS_P2;PMS_P1;PMS_P2;Temp;Humidity;BMP_temperature;BMP_pressure;BME280_temperature;BME280_humidity;BME280_pressure;Samples;Min_cycle;Max_cycle;Signal;HPM_P1;HPM_P2
2023/08/14 00:02:02;;;;;;;13.82;8.48;;;461.20;2380.80;;;;;;4991606;28;20050;-71
2023/08/14 00:04:27;;;;;;;10.13;8.48;;;461.20;2380.80;;;;;;4991530;28;20037;-72
2023/08/14 00:06:54;;;;;;;11.93;8.38;;;461.20;2380.80;;;;;;4992030;28;20022;-71
2023/08/14 00:09:20;;;;;;;13.38;9.13;;;461.20;2380.80;;;;;;4991549;28;20555;-73
2023/08/14 00:11:46;;;;;;;10.38;7.95;;;461.10;2380.80;;;;;;4991293;28;20030;-66
2023/08/14 00:14:12;;;;;;;9.95;8.57;;;461.10;2380.80;;;;;;4991988;28;20093;-66
2023/08/14 00:16:37;;;;;;;11.98;8.70;;;461.10;2380.80;;;;;;4987021;28;20078;-69
2023/08/14 00:19:03;;;;;;;11.95;8.98;;;461.00;2380.80;;;;;;4982990;28;20034;-69
2023/08/14 00:21:29;;;;;;;10.13;8.95;;;461.00;2380.80;;;;;;4991342;28;20018;-68
2023/08/14 00:23:55;;;;;;;10.73;8.60;;;461.10;2380.80;;;;;;4991322;28;20030;-62
2023/08/14 00:26:21;;;;;;;9.65;8.73;;;461.10;2380.80;;;;;;4991235;28;20018;-66
2023/08/14 00:28:46;;;;;;;15.25;7.97;;;461.00;2380.80;;;;;;4991180;28;20066;-73
2023/08/14 00:31:12;;;;;;;10.75;8.23;;;461.10;2380.80;;;;;;4991428;28;20164;-69
2023/08/14 00:33:38;;;;;;;9.43;8.43;;;461.30;2380.80;;;;;;4991024;28;20044;-64
2023/08/14 00:36:05;;;;;;;10.95;8.70;;;461.20;2380.80;;;;;;4991247;28;20022;-64
2023/08/14 00:38:31;;;;;;;10.25;8.90;;;461.10;2380.80;;;;;;4991199;28;20036;-66
2023/08/14 00:40:57;;;;;;;9.65;8.65;;;461.10;2380.80;;;;;;4990920;28;20057;-72
2023/08/14 00:43:23;;;;;;;8.98;8.07;;;461.10;2380.80;;;;;;4991047;28;20058;-73
2023/08/14 00:45:52;;;;;;;9.77;8.35;;;461.10;2380.80;;;;;;4990954;28;20022;-65
2023/08/14 00:48:19;;;;;;;9.85;8.45;;;461.10;2380.80;;;;;;4990814;28;20041;-68
2023/08/14 00:50:45;;;;;;;9.68;8.68;;;461.10;2380.80;;;;;;4991038;28;20030;-68
2023/08/14 00:53:11;;;;;;;12.48;8.63;;;461.10;2380.80;;;;;;4990520;28;20117;-63
2023/08/14 00:55:38;;;;;;;10.93;8.23;;;461.10;2380.80;;;;;;4990722;28;20027;-69
2023/08/14 00:58:04;;;;;;;13.60;8.15;;;461.10;2380.80;;;;;;4990922;28;20157;-73
2023/08/14 01:00:30;;;;;;;10.65;7.72;;;461.10;2380.80;;;;;;4990705;28;20104;-68
2023/08/14 01:02:56;;;;;;;9.27;8.40;;;461.10;2380.80;;;;;;4990805;28;20480;-66
2023/08/14 01:05:23;;;;;;;9.65;8.00;;;461.00;2380.80;;;;;;4990946;28;20150;-67
2023/08/14 01:07:49;;;;;;;9.80;8.68;;;461.00;2380.80;;;;;;4990441;28;20027;-66
2023/08/14 01:10:15;;;;;;;10.52;8.02;;;460.80;2380.80;;;;;;4990586;28;20030;-65
2023/08/14 01:12:59;;;;;;;9.45;8.45;;;460.90;2380.80;;;;;;4990163;28;20060;-68
2023/08/14 01:15:32;;;;;;;11.32;8.43;;;460.90;2380.80;;;;;;4990879;28;20112;-66
2023/08/14 01:18:00;;;;;;;10.40;7.57;;;460.80;2380.80;;;;;;4990431;28;20626;-76
2023/08/14 01:20:29;;;;;;;11.48;9.13;;;460.80;2380.80;;;;;;4989974;28;20485;-69
2023/08/14 01:23:05;;;;;;;11.10;8.48;;;460.80;2380.80;;;;;;4990542;28;20027;-73
2023/08/14 01:25:37;;;;;;;10.25;8.85;;;460.90;2380.80;;;;;;4990168;28;20503;-74
2023/08/14 01:28:04;;;;;;;10.68;9.13;;;460.90;2380.80;;;;;;4990755;28;20035;-72
2023/08/14 01:30:30;;;;;;;10.88;9.20;;;460.80;2380.80;;;;;;4990137;28;20101;-72
2023/08/14 01:32:56;;;;;;;12.32;8.25;;;436.10;2355.20;;;;;;4990329;28;20390;-66
2023/08/14 01:35:28;;;;;;;10.50;8.30;;;436.00;2355.20;;;;;;4990030;28;20027;-73
2023/08/14 01:38:23;;;;;;;15.07;9.67;;;436.00;2355.20;;;;;;4990116;28;20022;-73
2023/08/14 01:41:12;;;;;;;10.20;8.35;;;435.90;2355.20;;;;;;4911034;29;20160;-71
2023/08/14 01:43:48;;;;;;;10.82;8.48;;;435.90;2355.20;;;;;;4910733;29;20039;-73
2023/08/14 01:46:15;;;;;;;10.65;8.25;;;435.80;2355.20;;;;;;4910791;29;20032;-69
2023/08/14 01:48:41;;;;;;;9.77;8.77;;;435.90;2355.20;;;;;;4910931;29;20095;-71
2023/08/14 01:51:10;;;;;;;10.52;9.43;;;435.90;2355.20;;;;;;4910489;29;20044;-70
2023/08/14 01:53:36;;;;;;;9.98;8.70;;;435.90;2355.20;;;;;;4911068;29;20364;-71
2023/08/14 01:56:02;;;;;;;9.52;8.60;;;435.90;2355.20;;;;;;4910793;29;20132;-72
2023/08/14 01:58:29;;;;;;;12.07;9.00;;;435.90;2355.20;;;;;;4910659;29;20047;-72
2023/08/14 02:00:54;;;;;;;10.35;7.97;;;435.90;2355.20;;;;;;4894717;29;20383;-73
2023/08/14 02:03:20;;;;;;;9.88;8.82;;;436.10;2355.20;;;;;;4910512;29;20028;-73
2023/08/14 02:05:46;;;;;;;9.18;8.27;;;436.10;2355.20;;;;;;4909836;29;20024;-69
2023/08/14 02:08:11;;;;;;;11.57;9.32;;;436.00;2355.20;;;;;;4910887;29;20038;-68
2023/08/14 02:10:37;;;;;;;12.98;8.65;;;435.90;2355.20;;;;;;4910468;29;20096;-70
2023/08/14 02:13:03;;;;;;;9.75;7.90;;;435.90;2355.20;;;;;;4910659;29;20467;-74
2023/08/14 02:15:29;;;;;;;11.18;9.35;;;435.90;2355.20;;;;;;4910333;29;20118;-75
2023/08/14 02:17:54;;;;;;;13.40;9.02;;;436.00;2355.20;;;;;;4964784;28;20035;-69
2023/08/14 02:20:20;;;;;;;9.55;8.27;;;436.10;2355.20;;;;;;4989041;28;20045;-72
2023/08/14 02:22:46;;;;;;;11.00;8.55;;;436.10;2355.20;;;;;;4989335;28;20084;-65
2023/08/14 02:25:12;;;;;;;11.65;8.63;;;460.80;2380.80;;;;;;4989421;28;20436;-69
2023/08/14 02:27:38;;;;;;;13.25;9.35;;;436.10;2355.20;;;;;;4989545;28;20027;-68
2023/08/14 02:30:04;;;;;;;11.70;9.63;;;436.10;2355.20;;;;;;4989590;28;20592;-72
2023/08/14 02:32:30;;;;;;;10.23;8.93;;;436.00;2355.20;;;;;;4988923;28;20106;-71
2023/08/14 02:34:56;;;;;;;10.25;9.20;;;436.00;2355.20;;;;;;4989122;28;20122;-64
2023/08/14 02:37:22;;;;;;;11.15;10.02;;;435.90;2355.20;;;;;;4989642;28;20033;-70
2023/08/14 02:39:48;;;;;;;11.60;9.30;;;435.90;2355.20;;;;;;4988975;28;20069;-68
2023/08/14 02:42:17;;;;;;;10.43;9.30;;;435.90;2355.20;;;;;;4989720;28;20023;-68
2023/08/14 02:44:43;;;;;;;12.57;9.10;;;435.90;2355.20;;;;;;4989365;28;20026;-66
2023/08/14 02:47:09;;;;;;;12.55;9.20;;;436.00;2355.20;;;;;;4989444;28;20026;-67
2023/08/14 02:49:35;;;;;;;10.10;8.90;;;436.00;2355.20;;;;;;4989437;28;20488;-69
2023/08/14 02:52:00;;;;;;;11.77;9.48;;;435.90;2355.20;;;;;;4989299;28;20026;-68
2023/08/14 02:54:26;;;;;;;13.73;8.82;;;435.90;2355.20;;;;;;4989092;28;20543;-64
2023/08/14 02:56:52;;;;;;;11.38;10.05;;;435.90;2355.20;;;;;;4989419;28;20134;-69
2023/08/14 02:59:18;;;;;;;10.77;9.65;;;435.90;2355.20;;;;;;4989273;28;20109;-71
2023/08/14 03:01:44;;;;;;;11.23;9.90;;;435.90;2355.20;;;;;;4972117;28;20026;-68
2023/08/14 03:04:10;;;;;;;12.20;9.93;;;435.90;2355.20;;;;;;4971410;28;20461;-64
2023/08/14 03:06:36;;;;;;;11.90;9.90;;;435.80;2355.20;;;;;;4988923;28;20420;-66
2023/08/14 03:09:02;;;;;;;13.43;10.07;;;435.80;2355.20;;;;;;4989148;28;20033;-69
2023/08/14 03:11:29;;;;;;;11.55;9.27;;;435.70;2355.20;;;;;;4989399;28;20105;-70
2023/08/14 03:13:54;;;;;;;13.45;10.10;;;435.80;2355.20;;;;;;4989211;28;20057;-69
2023/08/14 03:16:20;;;;;;;11.40;9.10;;;435.90;2355.20;;;;;;4990618;28;20019;-71
2023/08/14 03:18:46;;;;;;;16.15;9.50;;;436.10;2355.20;;;;;;4992546;28;20030;-64
2023/08/14 03:21:12;;;;;;;9.93;8.85;;;435.90;2355.20;;;;;;4992510;28;20024;-69
2023/08/14 03:23:37;;;;;;;10.65;9.55;;;435.90;2355.20;;;;;;4992368;28;20491;-68
2023/08/14 03:26:04;;;;;;;11.00;9.55;;;435.80;2355.20;;;;;;4992770;28;20511;-71
2023/08/14 03:28:30;;;;;;;13.00;9.57;;;435.70;2355.20;;;;;;4974958;28;20042;-67
2023/08/14 03:30:56;;;;;;;12.70;9.75;;;435.70;2355.20;;;;;;4992527;28;20054;-64
2023/08/14 03:33:22;;;;;;;11.65;10.45;;;435.70;2355.20;;;;;;4992111;28;20677;-67
2023/08/14 03:35:47;;;;;;;12.82;9.05;;;435.70;2355.20;;;;;;4992179;28;20117;-70
2023/08/14 03:38:13;;;;;;;10.57;9.50;;;435.70;2355.20;;;;;;4992472;28;20030;-74
2023/08/14 03:40:39;;;;;;;10.68;9.57;;;435.70;2355.20;;;;;;4992004;28;20050;-75
2023/08/14 03:43:05;;;;;;;11.32;10.23;;;435.60;2355.20;;;;;;4992250;28;20027;-74
2023/08/14 03:45:30;;;;;;;12.98;9.68;;;435.60;2355.20;;;;;;4992209;28;20448;-73
2023/08/14 03:47:56;;;;;;;10.80;9.70;;;435.70;2355.20;;;;;;4991937;28;20073;-62
2023/08/14 03:50:22;;;;;;;11.35;9.05;;;435.70;2355.20;;;;;;4992211;28;20417;-74
2023/08/14 03:52:48;;;;;;;11.38;10.18;;;435.70;2355.20;;;;;;4978720;28;20027;-70
2023/08/14 03:55:14;;;;;;;10.63;9.52;;;435.60;2355.20;;;;;;4992119;28;20030;-68
2023/08/14 03:57:40;;;;;;;11.80;10.35;;;435.80;2355.20;;;;;;4992021;28;20030;-73
2023/08/14 04:00:06;;;;;;;16.88;11.13;;;435.80;2355.20;;;;;;4992136;28;20022;-66
2023/08/14 04:02:32;;;;;;;11.65;10.52;;;435.80;2355.20;;;;;;4991573;28;20396;-74
2023/08/14 04:04:58;;;;;;;15.73;9.85;;;436.00;2355.20;;;;;;4991566;28;20030;-72
2023/08/14 04:07:24;;;;;;;11.45;10.35;;;436.10;2355.20;;;;;;4991528;28;20022;-72
2023/08/14 04:09:49;;;;;;;11.40;10.20;;;436.10;2355.20;;;;;;4991718;28;20037;-69
2023/08/14 04:12:15;;;;;;;11.55;10.25;;;460.80;2380.80;;;;;;4991332;28;20409;-71
2023/08/14 04:14:41;;;;;;;12.25;9.20;;;461.00;2380.80;;;;;;4991499;28;20065;-70
2023/08/14 04:17:06;;;;;;;11.93;10.00;;;461.10;2380.80;;;;;;4991222;28;20019;-69
2023/08/14 04:19:32;;;;;;;15.98;9.98;;;461.10;2380.80;;;;;;4973964;28;20088;-67
2023/08/14 04:21:58;;;;;;;10.63;8.80;;;461.00;2380.80;;;;;;4991292;28;20023;-71
2023/08/14 04:24:23;;;;;;;10.57;9.48;;;461.10;2380.80;;;;;;4991218;28;20034;-72
2023/08/14 04:26:49;;;;;;;13.15;9.75;;;461.10;2380.80;;;;;;4991260;28;20473;-69
2023/08/14 04:29:16;;;;;;;11.63;10.43;;;461.20;2380.80;;;;;;4990871;28;20366;-72
2023/08/14 04:31:42;;;;;;;11.52;10.32;;;461.30;2380.80;;;;;;4991740;28;20049;-69
2023/08/14 04:34:09;;;;;;;12.60;10.18;;;461.50;2380.80;;;;;;4991148;28;20457;-68
2023/08/14 04:36:35;;;;;;;12.68;10.60;;;461.50;2380.80;;;;;;4991636;28;20400;-70
2023/08/14 04:39:03;;;;;;;11.63;10.43;;;461.60;2380.80;;;;;;4990971;28;20034;-68
2023/08/14 04:41:30;;;;;;;13.70;9.15;;;461.70;2380.80;;;;;;4990660;28;20025;-65
2023/08/14 04:43:56;;;;;;;13.60;9.63;;;461.70;2380.80;;;;;;4990358;28;20503;-64
2023/08/14 04:46:32;;;;;;;10.98;9.88;;;461.70;2380.80;;;;;;4989906;28;20109;-66
2023/08/14 04:48:59;;;;;;;10.05;8.80;;;486.70;2380.80;;;;;;4982349;28;20026;-73
2023/08/14 04:51:25;;;;;;;11.02;9.93;;;486.70;2380.80;;;;;;4990796;28;20030;-71
2023/08/14 04:53:50;;;;;;;11.52;9.90;;;487.00;2380.80;;;;;;4991255;28;20038;-75
2023/08/14 04:56:16;;;;;;;12.65;9.63;;;563.70;2432.00;;;;;;4990925;28;20025;-71
2023/08/14 04:58:43;;;;;;;10.30;9.23;;;614.90;2432.00;;;;;;4991225;28;20034;-75
2023/08/14 05:01:09;;;;;;;8.63;7.70;;;666.00;2380.80;;;;;;4990327;28;20078;-74
2023/08/14 05:03:34;;;;;;;9.30;8.32;;;692.10;2150.40;;;;;;4972736;28;20512;-74
2023/08/14 05:06:00;;;;;;;10.38;8.85;;;717.30;2048.00;;;;;;4990481;28;20037;-73
2023/08/14 05:08:26;;;;;;;10.15;9.15;;;717.50;2022.40;;;;;;4990261;28;20030;-62
2023/08/14 05:10:52;;;;;;;10.45;8.25;;;743.00;1945.60;;;;;;4990565;28;20037;-72
2023/08/14 05:13:18;;;;;;;9.55;8.60;;;768.00;1920.00;;;;;;4990020;28;20065;-74
2023/08/14 05:15:48;;;;;;;10.00;9.02;;;742.90;1945.60;;;;;;4990511;28;20057;-73
2023/08/14 05:18:14;;;;;;;9.20;8.30;;;768.10;1868.80;;;;;;4990379;28;20109;-73
2023/08/14 05:20:47;;;;;;;10.55;8.77;;;768.60;1843.20;;;;;;4989987;28;20118;-72
2023/08/14 05:23:14;;;;;;;10.07;9.10;;;742.90;1920.00;;;;;;4990277;28;20056;-73
2023/08/14 05:25:44;;;;;;;10.00;9.00;;;717.20;1996.80;;;;;;4990174;28;20142;-73
2023/08/14 05:28:10;;;;;;;9.40;8.48;;;742.40;1996.80;;;;;;4990167;28;20033;-74
2023/08/14 05:30:36;;;;;;;8.25;7.45;;;768.20;1894.40;;;;;;4990226;28;20366;-64
2023/08/14 05:33:02;;;;;;;9.25;8.35;;;793.70;1868.80;;;;;;4989868;28;20049;-71
2023/08/14 05:35:31;;;;;;;10.10;8.57;;;819.80;1766.40;;;;;;4990285;28;20037;-72
2023/08/14 05:37:57;;;;;;;8.75;7.97;;;845.50;1689.60;;;;;;4972219;28;20033;-74
2023/08/14 05:40:23;;;;;;;9.93;9.02;;;871.20;1587.20;;;;;;4989189;28;20034;-73
2023/08/14 05:43:04;;;;;;;10.98;9.10;;;896.90;1510.40;;;;;;4989818;28;20370;-74
2023/08/14 05:45:31;;;;;;;10.13;9.13;;;921.70;1510.40;;;;;;4990094;28;20041;-75
2023/08/14 05:47:57;;;;;;;9.40;8.60;;;922.20;1484.80;;;;;;4989814;28;20065;-72
2023/08/14 05:50:25;;;;;;;10.05;9.23;;;947.80;1433.60;;;;;;4988796;28;20085;-74
2023/08/14 05:52:51;;;;;;;10.30;9.38;;;998.50;1382.40;;;;;;4989921;28;20635;-73
2023/08/14 05:55:17;;;;;;;9.75;8.77;;;999.20;1331.20;;;;;;4990004;28;20448;-72
2023/08/14 05:57:42;;;;;;;8.38;7.72;;;998.40;1356.80;;;;;;4990425;28;20059;-70
2023/08/14 06:00:12;;;;;;;9.23;8.43;;;999.00;1331.20;;;;;;4989933;28;20065;-74
2023/08/14 06:02:37;;;;;;;9.27;8.38;;;1050.00;1254.40;;;;;;4989533;28;20027;-70
2023/08/14 06:05:04;;;;;;;9.95;9.07;;;1024.70;1254.40;;;;;;4990022;28;20031;-67
2023/08/14 06:07:29;;;;;;;9.70;8.80;;;1024.70;1254.40;;;;;;4984873;28;20663;-72
2023/08/14 06:09:55;;;;;;;10.18;9.13;;;1050.20;1254.40;;;;;;4970192;28;20038;-72
2023/08/14 06:12:21;;;;;;;10.20;9.13;;;1075.20;1228.80;;;;;;4989205;28;20057;-70
2023/08/14 06:14:46;;;;;;;11.15;8.73;;;1076.10;1177.60;;;;;;4989374;28;20038;-66
2023/08/14 06:17:12;;;;;;;9.98;9.07;;;1101.30;1177.60;;;;;;4989469;28;20061;-71
2023/08/14 06:19:38;;;;;;;10.07;9.25;;;1126.80;1152.00;;;;;;4989656;28;20057;-72
2023/08/14 06:22:05;;;;;;;10.43;9.45;;;1101.50;1152.00;;;;;;4989848;28;20492;-71
2023/08/14 06:24:30;;;;;;;10.25;9.30;;;1100.80;1203.20;;;;;;4989565;28;20033;-68
2023/08/14 06:26:56;;;;;;;11.50;10.48;;;1075.70;1203.20;;;;;;4989985;28;20102;-70
2023/08/14 06:29:22;;;;;;;10.32;9.30;;;1101.50;1177.60;;;;;;4989660;28;20026;-71
2023/08/14 06:31:48;;;;;;;10.50;9.57;;;1126.50;1177.60;;;;;;4988857;28;20019;-72
2023/08/14 06:34:13;;;;;;;52.78;48.47;;;1152.40;1100.80;;;;;;4989805;28;20038;-65
2023/08/14 06:36:39;;;;;;;911.20;813.13;;;1152.70;1100.80;;;;;;4989576;28;20381;-71
2023/08/14 06:39:05;;;;;;;481.10;436.52;;;1126.90;1152.00;;;;;;4989587;28;20480;-66
2023/08/14 06:41:31;;;;;;;121.30;111.20;;;1127.00;1152.00;;;;;;4983377;28;20541;-72
2023/08/14 06:43:57;;;;;;;17.42;16.23;;;1101.60;1177.60;;;;;;4984748;28;20076;-71
2023/08/14 06:46:23;;;;;;;12.98;12.07;;;1126.90;1152.00;;;;;;4991720;28;20068;-73
2023/08/14 06:48:48;;;;;;;12.60;11.60;;;1126.80;1152.00;;;;;;4990636;28;20054;-74
2023/08/14 06:51:14;;;;;;;12.50;11.68;;;1126.60;1177.60;;;;;;4984931;28;20085;-69
2023/08/14 06:53:40;;;;;;;12.68;11.45;;;1127.30;1152.00;;;;;;4987432;28;20536;-74
2023/08/14 06:56:06;;;;;;;23.88;22.23;;;1152.00;1126.40;;;;;;4993414;28;20113;-66
2023/08/14 06:58:31;;;;;;;12.35;11.35;;;1127.30;1126.40;;;;;;4993265;28;20379;-68
2023/08/14 07:00:58;;;;;;;12.25;11.30;;;1127.30;1126.40;;;;;;4992801;28;20077;-71
2023/08/14 07:03:24;;;;;;;13.00;10.55;;;1126.60;1126.40;;;;;;4992849;28;20015;-69
2023/08/14 07:05:50;;;;;;;12.20;11.25;;;1126.80;1100.80;;;;;;4992814;28;20030;-66
2023/08/14 07:08:16;;;;;;;12.57;11.68;;;1152.90;1049.60;;;;;;4992790;28;20022;-65
2023/08/14 07:10:41;;;;;;;13.20;12.10;;;1203.90;1024.00;;;;;;4992897;28;20389;-67
2023/08/14 07:13:08;;;;;;;12.63;11.63;;;1229.30;998.40;;;;;;4992386;28;20046;-70
2023/08/14 07:15:33;;;;;;;13.52;12.43;;;1203.80;998.40;;;;;;4992905;28;20194;-71
2023/08/14 07:17:59;;;;;;;12.35;11.55;;;1203.40;998.40;;;;;;4992429;28;20049;-68
2023/08/14 07:20:26;;;;;;;13.27;12.18;;;1152.10;1024.00;;;;;;4992516;28;20109;-67
2023/08/14 07:22:55;;;;;;;12.93;11.63;;;1178.50;998.40;;;;;;4992663;28;20377;-70
2023/08/14 07:25:21;;;;;;;16.63;12.70;;;1203.70;972.80;;;;;;4992593;28;20105;-67
2023/08/14 07:27:47;;;;;;;14.20;12.88;;;1177.80;998.40;;;;;;4992461;28;20105;-65
2023/08/14 07:30:14;;;;;;;14.55;13.20;;;1152.50;1024.00;;;;;;4992755;28;20030;-68
2023/08/14 07:32:40;;;;;;;14.45;13.35;;;1126.50;1075.20;;;;;;4992575;28;20468;-71
2023/08/14 07:35:06;;;;;;;13.73;12.77;;;1203.70;972.80;;;;;;4992501;28;20070;-69
2023/08/14 07:37:32;;;;;;;15.02;13.88;;;1229.30;972.80;;;;;;4992785;28;20092;-69
2023/08/14 07:39:58;;;;;;;13.98;12.98;;;1203.90;972.80;;;;;;4992067;28;20041;-67
2023/08/14 07:42:23;;;;;;;16.02;13.90;;;1178.20;972.80;;;;;;4992279;28;20023;-66
2023/08/14 07:44:49;;;;;;;13.27;12.38;;;1127.00;1049.60;;;;;;4991993;28;20027;-71
2023/08/14 07:47:15;;;;;;;15.00;13.88;;;1203.20;972.80;;;;;;4992294;28;20026;-70
2023/08/14 07:49:40;;;;;;;14.50;13.35;;;1177.80;998.40;;;;;;4992051;28;20491;-70
2023/08/14 07:52:06;;;;;;;14.40;13.25;;;1178.50;972.80;;;;;;4992258;28;20033;-65
2023/08/14 07:54:32;;;;;;;15.68;14.68;;;1178.10;972.80;;;;;;4991896;28;20125;-70
2023/08/14 07:56:58;;;;;;;15.50;14.02;;;1177.80;998.40;;;;;;4992189;28;20032;-71
2023/08/14 07:59:23;;;;;;;14.77;13.48;;;1152.10;1024.00;;;;;;4991945;28;20037;-68
2023/08/14 08:01:49;;;;;;;20.48;18.45;;;1177.80;1024.00;;;;;;4991636;28;20034;-70
2023/08/14 08:04:15;;;;;;;35.67;32.13;;;1203.60;998.40;;;;;;4991271;28;20485;-70
2023/08/14 08:06:40;;;;;;;15.60;13.95;;;1228.80;998.40;;;;;;4992043;28;20117;-70
2023/08/14 08:09:07;;;;;;;14.75;13.63;;;1178.00;998.40;;;;;;4991649;28;20599;-65
2023/08/14 08:11:33;;;;;;;16.70;15.40;;;1178.00;1024.00;;;;;;4991996;28;20485;-69
2023/08/14 08:14:05;;;;;;;15.40;14.20;;;1228.90;972.80;;;;;;4991432;28;20052;-72
2023/08/14 08:16:34;;;;;;;;;;;1229.00;998.40;;;;;;4989727;28;20092;-67
2023/08/14 08:19:01;;;;;;;15.77;14.02;;;1178.10;972.80;;;;;;4990194;28;20662;-69
2023/08/14 08:21:27;;;;;;;21.05;14.60;;;1178.00;998.40;;;;;;4990769;28;20046;-68
2023/08/14 08:23:53;;;;;;;15.27;13.43;;;1152.90;998.40;;;;;;4990875;28;20061;-67
2023/08/14 08:26:19;;;;;;;14.88;13.05;;;1101.40;1049.60;;;;;;4991405;28;20030;-70
2023/08/14 08:28:44;;;;;;;18.80;13.40;;;1101.70;1049.60;;;;;;4989929;28;20124;-69
2023/08/14 08:31:10;;;;;;;14.95;13.68;;;1075.90;1075.20;;;;;;4990207;28;20034;-71
2023/08/14 08:33:36;;;;;;;14.18;12.75;;;1075.20;1126.40;;;;;;5005016;28;20110;-69
2023/08/14 08:36:01;;;;;;;15.90;13.82;;;1050.30;1126.40;;;;;;5006642;28;20082;-71
2023/08/14 08:38:27;;;;;;;16.52;12.10;;;1049.60;1152.00;;;;;;4995090;28;20074;-72
2023/08/14 08:40:53;;;;;;;12.32;11.13;;;999.10;1203.20;;;;;;4990592;28;20539;-72
2023/08/14 08:43:20;;;;;;;12.20;10.90;;;947.60;1280.00;;;;;;4989816;28;20072;-71
2023/08/14 08:45:50;;;;;;;12.55;9.43;;;921.60;1331.20;;;;;;4990406;28;20152;-67
2023/08/14 08:48:21;;;;;;;13.80;8.98;;;896.30;1356.80;;;;;;4989555;28;20080;-71
2023/08/14 08:50:49;;;;;;;10.18;8.60;;;845.70;1433.60;;;;;;4972651;28;20027;-70
2023/08/14 08:53:19;;;;;;;10.02;8.65;;;845.50;1459.20;;;;;;4989468;28;20579;-68
2023/08/14 08:55:49;;;;;;;10.75;9.75;;;870.40;1459.20;;;;;;4989405;28;20030;-69
2023/08/14 08:58:16;;;;;;;10.18;9.07;;;845.40;1484.80;;;;;;4989445;28;20022;-70
2023/08/14 09:00:43;;;;;;;10.00;8.98;;;845.20;1459.20;;;;;;4988972;28;20030;-69
2023/08/14 09:03:09;;;;;;;9.63;8.63;;;845.20;1459.20;;;;;;4988833;28;20121;-70
2023/08/14 09:05:36;;;;;;;10.77;8.70;;;845.70;1433.60;;;;;;4989131;28;20030;-68
2023/08/14 09:08:02;;;;;;;11.55;8.57;;;845.20;1484.80;;;;;;4988783;28;20061;-69
2023/08/14 09:10:28;;;;;;;16.80;9.70;;;844.90;1510.40;;;;;;4988659;28;20045;-70
2023/08/14 09:12:58;;;;;;;10.38;8.63;;;819.80;1510.40;;;;;;4989012;28;20065;-68
2023/08/14 09:15:24;;;;;;;10.50;9.40;;;844.80;1536.00;;;;;;4988666;28;20038;-69
2023/08/14 09:17:54;;;;;;;9.40;8.45;;;844.90;1536.00;;;;;;4988664;28;20085;-70
2023/08/14 09:20:20;;;;;;;10.65;9.63;;;819.50;1536.00;;;;;;4988690;28;20548;-70
2023/08/14 09:22:46;;;;;;;12.00;10.10;;;819.90;1510.40;;;;;;4988742;28;20121;-69
2023/08/14 09:25:13;;;;;;;10.40;8.48;;;844.80;1536.00;;;;;;4988915;28;20468;-69
2023/08/14 09:27:39;;;;;;;10.57;7.15;;;819.80;1484.80;;;;;;4988717;28;20030;-68
2023/08/14 09:30:06;;;;;;;10.35;8.00;;;819.80;1510.40;;;;;;4989079;28;20357;-71
2023/08/14 09:32:32;;;;;;;9.77;8.50;;;820.00;1459.20;;;;;;4988440;28;20031;-70
2023/08/14 09:34:59;;;;;;;9.88;8.52;;;819.60;1484.80;;;;;;4989627;28;20049;-70
2023/08/14 09:37:25;;;;;;;9.63;7.97;;;819.60;1536.00;;;;;;4990123;28;20034;-68
2023/08/14 09:40:17;;;;;;;12.05;8.27;;;819.40;1510.40;;;;;;4977257;28;20035;-68
2023/08/14 09:42:48;;;;;;;14.27;8.60;;;819.30;1536.00;;;;;;4986543;28;20133;-68
2023/08/14 09:45:17;;;;;;;13.45;8.43;;;794.20;1587.20;;;;;;4990073;28;20041;-67
2023/08/14 09:47:45;;;;;;;10.13;7.80;;;794.50;1561.60;;;;;;4977322;28;20058;-69
2023/08/14 09:50:14;;;;;;;12.48;8.43;;;819.70;1510.40;;;;;;4990587;28;20023;-71
2023/08/14 09:52:42;;;;;;;11.98;7.70;;;819.20;1561.60;;;;;;4990029;28;20024;-70
2023/08/14 09:55:08;;;;;;;11.65;8.38;;;819.30;1561.60;;;;;;4989845;28;20030;-71
2023/08/14 09:57:34;;;;;;;12.13;7.75;;;794.40;1561.60;;;;;;4989812;28;20036;-72
2023/08/14 10:00:00;;;;;;;10.40;8.32;;;794.00;1587.20;;;;;;4989582;28;20121;-69
2023/08/14 10:02:26;;;;;;;12.50;8.60;;;793.60;1638.40;;;;;;4989752;28;20027;-71
2023/08/14 10:04:53;;;;;;;12.77;7.85;;;768.90;1587.20;;;;;;4976953;28;20456;-70
2023/08/14 10:07:21;;;;;;;9.45;8.18;;;768.90;1587.20;;;;;;4989708;28;20034;-70
2023/08/14 10:09:51;;;;;;;8.95;7.82;;;793.90;1587.20;;;;;;4989639;28;20393;-69
2023/08/14 10:12:22;;;;;;;9.50;8.60;;;794.00;1612.80;;;;;;4989337;28;20061;-69
2023/08/14 10:15:14;;;;;;;9.35;7.97;;;794.30;1587.20;;;;;;4989430;28;20034;-69
2023/08/14 10:17:58;;;;;;;8.93;8.02;;;794.10;1612.80;;;;;;4989638;28;20451;-70
2023/08/14 10:20:25;;;;;;;9.25;7.97;;;768.90;1612.80;;;;;;4989773;28;20125;-70
2023/08/14 10:22:55;;;;;;;9.07;7.10;;;793.80;1612.80;;;;;;4989103;28;20030;-69
2023/08/14 10:25:24;;;;;;;9.02;8.13;;;793.60;1638.40;;;;;;4989691;28;20106;-68
2023/08/14 10:27:53;;;;;;;8.93;8.13;;;793.70;1664.00;;;;;;4993619;28;20030;-68
2023/08/14 10:30:24;;;;;;;9.35;8.55;;;794.00;1664.00;;;;;;4993469;28;20080;-68
2023/08/14 10:32:51;;;;;;;10.73;9.05;;;794.20;1638.40;;;;;;4993551;28;20022;-69
2023/08/14 10:35:19;;;;;;;9.73;8.73;;;794.00;1664.00;;;;;;4993215;28;20459;-65
2023/08/14 10:37:47;;;;;;;11.07;8.32;;;793.70;1689.60;;;;;;4993831;28;20093;-69
2023/08/14 10:40:15;;;;;;;11.63;9.20;;;793.60;1715.20;;;;;;4993542;28;20053;-70
2023/08/14 10:42:52;;;;;;;9.55;8.60;;;793.90;1740.80;;;;;;4993398;28;20088;-71
2023/08/14 10:45:22;;;;;;;9.02;8.00;;;794.20;1689.60;;;;;;4993161;28;20033;-63
2023/08/14 10:47:49;;;;;;;15.65;8.80;;;794.40;1689.60;;;;;;4993172;28;20053;-66
2023/08/14 10:50:26;;;;;;;11.40;8.13;;;794.20;1689.60;;;;;;4993460;28;20023;-68
2023/08/14 10:52:54;;;;;;;10.98;9.10;;;793.90;1689.60;;;;;;4992914;28;20050;-69
2023/08/14 10:55:45;;;;;;;10.10;8.77;;;794.20;1689.60;;;;;;4992900;28;20061;-69
2023/08/14 10:58:31;;;;;;;9.68;8.68;;;768.50;1664.00;;;;;;4993043;28;20014;-69
2023/08/14 11:00:58;;;;;;;9.38;8.48;;;794.20;1715.20;;;;;;4992857;28;20461;-68
2023/08/14 11:03:24;;;;;;;9.88;8.02;;;793.80;1689.60;;;;;;4990394;28;20023;-68
2023/08/14 11:05:50;;;;;;;15.95;8.80;;;793.70;1715.20;;;;;;4991607;28;20114;-69
2023/08/14 11:08:16;;;;;;;12.85;8.60;;;793.70;1715.20;;;;;;4991355;28;20025;-68
2023/08/14 11:10:44;;;;;;;10.93;8.20;;;793.70;1689.60;;;;;;4991266;28;20027;-66
2023/08/14 11:13:10;;;;;;;9.05;7.78;;;768.80;1664.00;;;;;;4990849;28;20038;-71
2023/08/14 11:15:38;;;;;;;10.68;8.07;;;794.00;1689.60;;;;;;4990914;28;20372;-71
2023/08/14 11:18:09;;;;;;;11.48;7.88;;;768.80;1664.00;;;;;;4990851;28;20050;-70
2023/08/14 11:20:43;;;;;;;9.20;7.50;;;793.60;1689.60;;;;;;4991238;28;20038;-71
2023/08/14 11:23:10;;;;;;;9.63;8.80;;;793.70;1664.00;;;;;;4979095;28;20073;-69
2023/08/14 11:25:37;;;;;;;8.07;7.38;;;793.70;1664.00;;;;;;4990939;28;20056;-69
2023/08/14 11:28:03;;;;;;;9.07;8.25;;;793.70;1664.00;;;;;;4990616;28;20463;-69
2023/08/14 11:30:33;;;;;;;9.45;7.03;;;794.00;1638.40;;;;;;4990654;28;20062;-70
2023/08/14 11:33:01;;;;;;;11.35;7.85;;;793.80;1638.40;;;;;;4956531;28;20041;-68
2023/08/14 11:35:28;;;;;;;12.20;7.82;;;793.80;1638.40;;;;;;4990695;28;20050;-67
2023/08/14 11:37:55;;;;;;;8.30;6.90;;;793.90;1664.00;;;;;;4990957;28;20023;-71
2023/08/14 11:40:20;;;;;;;8.13;7.30;;;794.20;1612.80;;;;;;4990330;28;20481;-70
2023/08/14 11:42:46;;;;;;;8.07;7.10;;;794.20;1612.80;;;;;;4990017;28;20046;-65
2023/08/14 11:45:12;;;;;;;8.57;7.57;;;794.00;1612.80;;;;;;4990870;28;20022;-71
2023/08/14 11:47:48;;;;;;;8.68;7.18;;;793.80;1664.00;;;;;;4980935;28;20110;-67
2023/08/14 11:50:15;;;;;;;8.10;7.28;;;794.20;1664.00;;;;;;4989088;28;20026;-66
2023/08/14 11:52:42;;;;;;;7.50;6.72;;;794.00;1587.20;;;;;;4990773;28;20030;-69
2023/08/14 11:55:09;;;;;;;7.57;6.88;;;794.00;1612.80;;;;;;4989883;28;20038;-66
2023/08/14 11:57:36;;;;;;;10.35;6.97;;;793.70;1638.40;;;;;;4990525;28;20038;-70
2023/08/14 12:00:21;;;;;;;8.02;6.90;;;794.00;1638.40;;;;;;4990717;28;20114;-69
2023/08/14 12:02:49;;;;;;;9.43;7.38;;;794.00;1612.80;;;;;;4990128;28;20034;-70
2023/08/14 12:05:19;;;;;;;7.55;6.82;;;793.80;1612.80;;;;;;4990186;28;20025;-71
2023/08/14 12:07:45;;;;;;;11.15;7.22;;;793.80;1612.80;;;;;;4989871;28;20037;-70